sensor_id;sensor_type;location;lat;lon;timestamp;temperature;humidity
70456;DHT22;57916;51.996;5.180;2022-08-03T00:00:26;25.20;57.60
70456;DHT22;57916;51.996;5.180;2022-08-03T00:02:53;25.20;57.50
70456;DHT22;57916;51.996;5.180;2022-08-03T00:05:20;25.20;57.50
70456;DHT22;57916;51.996;5.180;2022-08-03T00:07:47;25.10;57.50
70456;DHT22;57916;51.996;5.180;2022-08-03T00:10:15;25.10;57.30
70456;DHT22;57916;51.996;5.180;2022-08-03T00:12:42;25.10;57.30
70456;DHT22;57916;51.996;5.180;2022-08-03T00:15:10;25.10;57.00
70456;DHT22;57916;51.996;5.180;2022-08-03T00:17:43;25.10;56.90
70456;DHT22;57916;51.996;5.180;2022-08-03T00:20:23;25.00;57.00
70456;DHT22;57916;51.996;5.180;2022-08-03T00:22:50;24.90;57.60
70456;DHT22;57916;51.996;5.180;2022-08-03T00:25:17;24.90;58.00
70456;DHT22;57916;51.996;5.180;2022-08-03T00:27:44;24.90;58.20
70456;DHT22;57916;51.996;5.180;2022-08-03T00:30:14;24.80;58.20
70456;DHT22;57916;51.996;5.180;2022-08-03T00:32:42;24.80;58.40
70456;DHT22;57916;51.996;5.180;2022-08-03T00:35:11;24.80;58.40
70456;DHT22;57916;51.996;5.180;2022-08-03T00:37:58;24.80;58.50
70456;DHT22;57916;51.996;5.180;2022-08-03T00:40:25;24.80;58.70
70456;DHT22;57916;51.996;5.180;2022-08-03T00:43:01;24.70;58.80
70456;DHT22;57916;51.996;5.180;2022-08-03T00:45:36;24.70;59.10
70456;DHT22;57916;51.996;5.180;2022-08-03T00:48:06;24.70;59.20
70456;DHT22;57916;51.996;5.180;2022-08-03T00:50:53;24.70;59.40
70456;DHT22;57916;51.996;5.180;2022-08-03T00:53:20;24.70;59.30
70456;DHT22;57916;51.996;5.180;2022-08-03T00:55:47;24.70;59.20
70456;DHT22;57916;51.996;5.180;2022-08-03T00:58:14;24.70;59.20
70456;DHT22;57916;51.996;5.180;2022-08-03T01:00:41;24.60;59.20
70456;DHT22;57916;51.996;5.180;2022-08-03T01:03:09;24.60;59.30
70456;DHT22;57916;51.996;5.180;2022-08-03T01:06:03;24.50;59.50
70456;DHT22;57916;51.996;5.180;2022-08-03T01:08:45;24.50;59.80
70456;DHT22;57916;51.996;5.180;2022-08-03T01:11:16;24.40;59.90
70456;DHT22;57916;51.996;5.180;2022-08-03T01:17:06;24.40;60.00
70456;DHT22;57916;51.996;5.180;2022-08-03T01:19:44;24.30;60.30
70456;DHT22;57916;51.996;5.180;2022-08-03T01:22:21;24.20;60.50
70456;DHT22;57916;51.996;5.180;2022-08-03T01:30:35;24.10;60.90
70456;DHT22;57916;51.996;5.180;2022-08-03T01:33:07;24.20;61.00
70456;DHT22;57916;51.996;5.180;2022-08-03T01:35:53;24.20;60.90
70456;DHT22;57916;51.996;5.180;2022-08-03T01:38:26;24.20;60.70
70456;DHT22;57916;51.996;5.180;2022-08-03T01:40:55;24.20;60.60
70456;DHT22;57916;51.996;5.180;2022-08-03T01:43:27;24.20;60.40
70456;DHT22;57916;51.996;5.180;2022-08-03T01:46:17;24.20;60.20
70456;DHT22;57916;51.996;5.180;2022-08-03T01:48:47;24.20;60.10
70456;DHT22;57916;51.996;5.180;2022-08-03T01:51:16;24.20;60.10
70456;DHT22;57916;51.996;5.180;2022-08-03T01:53:44;24.20;60.20
70456;DHT22;57916;51.996;5.180;2022-08-03T01:56:13;24.20;60.20
70456;DHT22;57916;51.996;5.180;2022-08-03T01:58:42;24.10;60.20
70456;DHT22;57916;51.996;5.180;2022-08-03T02:01:10;24.10;60.50
70456;DHT22;57916;51.996;5.180;2022-08-03T02:03:40;24.00;60.70
70456;DHT22;57916;51.996;5.180;2022-08-03T02:06:29;24.00;60.80
70456;DHT22;57916;51.996;5.180;2022-08-03T02:09:20;23.90;60.80
70456;DHT22;57916;51.996;5.180;2022-08-03T02:11:48;23.90;61.00
70456;DHT22;57916;51.996;5.180;2022-08-03T02:14:18;23.90;61.10
70456;DHT22;57916;51.996;5.180;2022-08-03T02:16:46;23.90;61.10
70456;DHT22;57916;51.996;5.180;2022-08-03T02:19:13;23.90;61.00
70456;DHT22;57916;51.996;5.180;2022-08-03T02:21:42;23.90;61.00
70456;DHT22;57916;51.996;5.180;2022-08-03T02:24:27;23.90;62.00
70456;DHT22;57916;51.996;5.180;2022-08-03T02:26:55;23.90;61.30
70456;DHT22;57916;51.996;5.180;2022-08-03T02:29:25;23.80;61.30
70456;DHT22;57916;51.996;5.180;2022-08-03T02:32:09;23.90;61.50
70456;DHT22;57916;51.996;5.180;2022-08-03T02:34:37;23.90;61.40
70456;DHT22;57916;51.996;5.180;2022-08-03T02:37:06;23.90;62.20
70456;DHT22;57916;51.996;5.180;2022-08-03T02:39:34;23.90;61.10
70456;DHT22;57916;51.996;5.180;2022-08-03T02:42:02;23.90;60.90
70456;DHT22;57916;51.996;5.180;2022-08-03T02:44:32;23.80;60.80
70456;DHT22;57916;51.996;5.180;2022-08-03T02:47:05;23.80;60.90
70456;DHT22;57916;51.996;5.180;2022-08-03T02:49:34;23.80;60.80
70456;DHT22;57916;51.996;5.180;2022-08-03T02:52:20;23.80;60.90
70456;DHT22;57916;51.996;5.180;2022-08-03T02:54:55;23.80;60.90
70456;DHT22;57916;51.996;5.180;2022-08-03T02:57:26;23.70;61.00
70456;DHT22;57916;51.996;5.180;2022-08-03T02:59:54;23.70;61.00
70456;DHT22;57916;51.996;5.180;2022-08-03T03:02:23;23.70;61.00
70456;DHT22;57916;51.996;5.180;2022-08-03T03:04:51;23.70;60.90
70456;DHT22;57916;51.996;5.180;2022-08-03T03:07:39;23.70;60.80
70456;DHT22;57916;51.996;5.180;2022-08-03T03:10:22;23.70;60.80
70456;DHT22;57916;51.996;5.180;2022-08-03T03:12:55;23.60;61.90
70456;DHT22;57916;51.996;5.180;2022-08-03T03:15:26;23.60;61.20
70456;DHT22;57916;51.996;5.180;2022-08-03T03:17:54;23.60;61.40
70456;DHT22;57916;51.996;5.180;2022-08-03T03:20:23;23.50;61.60
70456;DHT22;57916;51.996;5.180;2022-08-03T03:22:58;23.40;61.70
70456;DHT22;57916;51.996;5.180;2022-08-03T03:25:27;23.50;62.00
70456;DHT22;57916;51.996;5.180;2022-08-03T03:27:56;23.50;61.90
70456;DHT22;57916;51.996;5.180;2022-08-03T03:30:24;23.50;61.80
70456;DHT22;57916;51.996;5.180;2022-08-03T03:32:52;23.50;61.50
70456;DHT22;57916;51.996;5.180;2022-08-03T03:35:19;23.50;61.40
70456;DHT22;57916;51.996;5.180;2022-08-03T03:37:46;23.50;61.30
70456;DHT22;57916;51.996;5.180;2022-08-03T03:40:13;23.50;61.40
70456;DHT22;57916;51.996;5.180;2022-08-03T03:42:40;23.50;61.40
70456;DHT22;57916;51.996;5.180;2022-08-03T03:45:08;23.50;61.30
70456;DHT22;57916;51.996;5.180;2022-08-03T03:47:36;23.50;61.30
70456;DHT22;57916;51.996;5.180;2022-08-03T03:50:03;23.40;61.10
70456;DHT22;57916;51.996;5.180;2022-08-03T03:52:31;23.50;61.40
70456;DHT22;57916;51.996;5.180;2022-08-03T03:54:59;23.40;61.60
70456;DHT22;57916;51.996;5.180;2022-08-03T03:57:28;23.30;61.90
70456;DHT22;57916;51.996;5.180;2022-08-03T03:59:55;23.20;62.10
70456;DHT22;57916;51.996;5.180;2022-08-03T04:02:22;23.20;62.20
70456;DHT22;57916;51.996;5.180;2022-08-03T04:04:49;23.20;62.10
70456;DHT22;57916;51.996;5.180;2022-08-03T04:08:11;23.20;62.10
70456;DHT22;57916;51.996;5.180;2022-08-03T04:13:52;23.20;62.10
70456;DHT22;57916;51.996;5.180;2022-08-03T04:16:25;23.20;62.00
70456;DHT22;57916;51.996;5.180;2022-08-03T04:19:01;23.20;62.10
70456;DHT22;57916;51.996;5.180;2022-08-03T04:21:29;23.20;62.10
70456;DHT22;57916;51.996;5.180;2022-08-03T04:24:00;23.20;61.90
70456;DHT22;57916;51.996;5.180;2022-08-03T04:26:31;23.20;61.90
70456;DHT22;57916;51.996;5.180;2022-08-03T04:29:00;23.20;62.10
70456;DHT22;57916;51.996;5.180;2022-08-03T04:31:29;23.10;62.40
70456;DHT22;57916;51.996;5.180;2022-08-03T04:33:56;23.00;62.60
70456;DHT22;57916;51.996;5.180;2022-08-03T04:36:25;23.00;62.70
70456;DHT22;57916;51.996;5.180;2022-08-03T04:39:02;23.00;63.80
70456;DHT22;57916;51.996;5.180;2022-08-03T04:41:30;22.90;63.00
70456;DHT22;57916;51.996;5.180;2022-08-03T04:44:18;22.90;63.20
70456;DHT22;57916;51.996;5.180;2022-08-03T04:46:54;22.90;63.30
70456;DHT22;57916;51.996;5.180;2022-08-03T04:49:21;22.90;63.30
70456;DHT22;57916;51.996;5.180;2022-08-03T04:51:49;23.00;63.30
70456;DHT22;57916;51.996;5.180;2022-08-03T04:54:17;23.00;63.30
70456;DHT22;57916;51.996;5.180;2022-08-03T04:56:44;23.00;63.30
70456;DHT22;57916;51.996;5.180;2022-08-03T04:59:11;23.00;63.20
70456;DHT22;57916;51.996;5.180;2022-08-03T05:01:39;23.00;63.30
70456;DHT22;57916;51.996;5.180;2022-08-03T05:04:07;23.00;63.10
70456;DHT22;57916;51.996;5.180;2022-08-03T05:06:34;23.00;63.10
70456;DHT22;57916;51.996;5.180;2022-08-03T05:09:01;23.00;63.10
70456;DHT22;57916;51.996;5.180;2022-08-03T05:11:29;23.00;63.20
70456;DHT22;57916;51.996;5.180;2022-08-03T05:13:56;23.00;63.30
70456;DHT22;57916;51.996;5.180;2022-08-03T05:16:23;22.90;63.40
70456;DHT22;57916;51.996;5.180;2022-08-03T05:18:53;23.00;63.60
70456;DHT22;57916;51.996;5.180;2022-08-03T05:21:20;23.00;63.70
70456;DHT22;57916;51.996;5.180;2022-08-03T05:23:47;23.00;63.80
70456;DHT22;57916;51.996;5.180;2022-08-03T05:26:13;22.90;64.00
70456;DHT22;57916;51.996;5.180;2022-08-03T05:28:40;22.90;64.30
70456;DHT22;57916;51.996;5.180;2022-08-03T05:31:16;22.90;64.60
70456;DHT22;57916;51.996;5.180;2022-08-03T05:33:43;22.90;64.80
70456;DHT22;57916;51.996;5.180;2022-08-03T05:36:10;23.00;64.80
70456;DHT22;57916;51.996;5.180;2022-08-03T05:38:38;23.10;64.80
70456;DHT22;57916;51.996;5.180;2022-08-03T05:41:05;23.10;64.70
70456;DHT22;57916;51.996;5.180;2022-08-03T05:43:49;23.20;64.70
70456;DHT22;57916;51.996;5.180;2022-08-03T05:46:16;23.30;64.60
70456;DHT22;57916;51.996;5.180;2022-08-03T05:48:43;23.40;64.20
70456;DHT22;57916;51.996;5.180;2022-08-03T05:51:10;23.40;63.80
70456;DHT22;57916;51.996;5.180;2022-08-03T05:53:41;23.50;63.70
70456;DHT22;57916;51.996;5.180;2022-08-03T05:56:09;23.60;63.60
70456;DHT22;57916;51.996;5.180;2022-08-03T05:58:45;23.70;63.80
70456;DHT22;57916;51.996;5.180;2022-08-03T06:01:14;23.80;63.40
70456;DHT22;57916;51.996;5.180;2022-08-03T06:03:41;23.80;63.20
70456;DHT22;57916;51.996;5.180;2022-08-03T06:06:08;23.90;63.10
70456;DHT22;57916;51.996;5.180;2022-08-03T06:08:37;23.90;62.90
70456;DHT22;57916;51.996;5.180;2022-08-03T06:11:04;24.00;63.10
70456;DHT22;57916;51.996;5.180;2022-08-03T06:13:31;24.20;62.40
70456;DHT22;57916;51.996;5.180;2022-08-03T06:15:59;24.40;61.60
70456;DHT22;57916;51.996;5.180;2022-08-03T06:18:25;24.40;61.50
70456;DHT22;57916;51.996;5.180;2022-08-03T06:20:53;24.60;61.40
70456;DHT22;57916;51.996;5.180;2022-08-03T06:23:21;24.90;61.30
70456;DHT22;57916;51.996;5.180;2022-08-03T06:26:08;25.40;60.10
70456;DHT22;57916;51.996;5.180;2022-08-03T06:28:37;26.10;57.60
70456;DHT22;57916;51.996;5.180;2022-08-03T06:31:21;26.60;56.60
70456;DHT22;57916;51.996;5.180;2022-08-03T06:33:49;27.00;55.80
70456;DHT22;57916;51.996;5.180;2022-08-03T06:36:36;27.40;54.30
70456;DHT22;57916;51.996;5.180;2022-08-03T06:39:05;27.90;53.20
70456;DHT22;57916;51.996;5.180;2022-08-03T06:41:33;28.30;51.80
70456;DHT22;57916;51.996;5.180;2022-08-03T06:44:07;28.80;50.40
70456;DHT22;57916;51.996;5.180;2022-08-03T06:46:36;29.20;49.30
70456;DHT22;57916;51.996;5.180;2022-08-03T06:49:02;29.30;48.60
70456;DHT22;57916;51.996;5.180;2022-08-03T06:51:29;29.40;48.40
70456;DHT22;57916;51.996;5.180;2022-08-03T06:54:17;29.50;48.80
70456;DHT22;57916;51.996;5.180;2022-08-03T06:56:43;29.80;48.50
70456;DHT22;57916;51.996;5.180;2022-08-03T06:59:10;29.90;46.90
70456;DHT22;57916;51.996;5.180;2022-08-03T07:01:57;30.20;46.80
70456;DHT22;57916;51.996;5.180;2022-08-03T07:04:24;30.40;45.70
70456;DHT22;57916;51.996;5.180;2022-08-03T07:06:51;30.60;45.30
70456;DHT22;57916;51.996;5.180;2022-08-03T07:09:18;30.70;45.30
70456;DHT22;57916;51.996;5.180;2022-08-03T07:11:45;30.80;44.60
70456;DHT22;57916;51.996;5.180;2022-08-03T07:14:12;31.10;44.50
70456;DHT22;57916;51.996;5.180;2022-08-03T07:16:39;31.30;43.80
70456;DHT22;57916;51.996;5.180;2022-08-03T07:19:06;31.50;43.80
70456;DHT22;57916;51.996;5.180;2022-08-03T07:21:33;31.70;43.10
70456;DHT22;57916;51.996;5.180;2022-08-03T07:24:00;32.00;42.30
70456;DHT22;57916;51.996;5.180;2022-08-03T07:26:26;32.20;42.10
70456;DHT22;57916;51.996;5.180;2022-08-03T07:28:54;32.50;41.90
70456;DHT22;57916;51.996;5.180;2022-08-03T07:31:20;32.70;41.30
70456;DHT22;57916;51.996;5.180;2022-08-03T07:33:47;32.90;41.20
70456;DHT22;57916;51.996;5.180;2022-08-03T07:36:14;33.10;40.00
70456;DHT22;57916;51.996;5.180;2022-08-03T07:38:41;33.20;39.70
70456;DHT22;57916;51.996;5.180;2022-08-03T07:41:08;33.30;40.70
70456;DHT22;57916;51.996;5.180;2022-08-03T07:43:35;33.40;39.30
70456;DHT22;57916;51.996;5.180;2022-08-03T07:46:02;33.40;39.60
70456;DHT22;57916;51.996;5.180;2022-08-03T07:48:29;33.60;38.80
70456;DHT22;57916;51.996;5.180;2022-08-03T07:50:56;33.70;38.60
70456;DHT22;57916;51.996;5.180;2022-08-03T07:53:23;33.80;38.50
70456;DHT22;57916;51.996;5.180;2022-08-03T07:55:50;33.90;38.40
70456;DHT22;57916;51.996;5.180;2022-08-03T07:58:16;33.90;38.30
70456;DHT22;57916;51.996;5.180;2022-08-03T08:00:50;34.00;38.50
70456;DHT22;57916;51.996;5.180;2022-08-03T08:03:19;34.10;38.10
70456;DHT22;57916;51.996;5.180;2022-08-03T08:05:48;34.20;38.00
70456;DHT22;57916;51.996;5.180;2022-08-03T08:08:15;34.40;37.60
70456;DHT22;57916;51.996;5.180;2022-08-03T08:10:42;34.50;37.20
70456;DHT22;57916;51.996;5.180;2022-08-03T08:13:24;34.50;37.10
70456;DHT22;57916;51.996;5.180;2022-08-03T08:15:51;34.60;37.10
70456;DHT22;57916;51.996;5.180;2022-08-03T08:18:18;34.70;36.80
70456;DHT22;57916;51.996;5.180;2022-08-03T08:20:45;34.70;37.30
70456;DHT22;57916;51.996;5.180;2022-08-03T08:23:12;34.60;36.90
70456;DHT22;57916;51.996;5.180;2022-08-03T08:25:59;34.60;37.00
70456;DHT22;57916;51.996;5.180;2022-08-03T08:28:26;34.60;37.00
70456;DHT22;57916;51.996;5.180;2022-08-03T08:30:59;34.50;36.90
70456;DHT22;57916;51.996;5.180;2022-08-03T08:33:25;34.60;37.10
70456;DHT22;57916;51.996;5.180;2022-08-03T08:36:08;34.70;36.70
70456;DHT22;57916;51.996;5.180;2022-08-03T08:38:41;34.80;36.80
70456;DHT22;57916;51.996;5.180;2022-08-03T08:41:11;34.90;36.50
70456;DHT22;57916;51.996;5.180;2022-08-03T08:43:39;35.00;36.60
70456;DHT22;57916;51.996;5.180;2022-08-03T08:46:10;35.20;36.20
70456;DHT22;57916;51.996;5.180;2022-08-03T08:48:41;35.50;35.70
70456;DHT22;57916;51.996;5.180;2022-08-03T08:51:11;35.80;35.20
70456;DHT22;57916;51.996;5.180;2022-08-03T08:53:40;36.00;34.90
70456;DHT22;57916;51.996;5.180;2022-08-03T08:56:13;36.20;34.10
70456;DHT22;57916;51.996;5.180;2022-08-03T08:58:46;36.30;34.00
70456;DHT22;57916;51.996;5.180;2022-08-03T09:01:17;36.60;33.80
70456;DHT22;57916;51.996;5.180;2022-08-03T09:03:46;36.80;33.40
70456;DHT22;57916;51.996;5.180;2022-08-03T09:06:13;36.90;32.80
70456;DHT22;57916;51.996;5.180;2022-08-03T09:08:40;37.00;32.60
70456;DHT22;57916;51.996;5.180;2022-08-03T09:11:07;37.10;32.40
70456;DHT22;57916;51.996;5.180;2022-08-03T09:13:38;37.20;32.50
70456;DHT22;57916;51.996;5.180;2022-08-03T09:16:14;37.20;31.90
70456;DHT22;57916;51.996;5.180;2022-08-03T09:18:46;37.20;32.50
70456;DHT22;57916;51.996;5.180;2022-08-03T09:23:59;37.50;31.80
70456;DHT22;57916;51.996;5.180;2022-08-03T09:26:31;37.50;31.80
70456;DHT22;57916;51.996;5.180;2022-08-03T09:29:08;37.50;31.50
70456;DHT22;57916;51.996;5.180;2022-08-03T09:31:44;37.70;31.40
70456;DHT22;57916;51.996;5.180;2022-08-03T09:34:13;37.60;31.40
70456;DHT22;57916;51.996;5.180;2022-08-03T09:36:48;37.50;31.50
70456;DHT22;57916;51.996;5.180;2022-08-03T09:39:17;37.60;31.60
70456;DHT22;57916;51.996;5.180;2022-08-03T09:41:47;37.50;31.30
70456;DHT22;57916;51.996;5.180;2022-08-03T09:44:14;37.60;31.60
70456;DHT22;57916;51.996;5.180;2022-08-03T09:46:54;37.60;31.30
70456;DHT22;57916;51.996;5.180;2022-08-03T09:49:24;37.60;31.30
70456;DHT22;57916;51.996;5.180;2022-08-03T09:51:52;37.70;31.80
70456;DHT22;57916;51.996;5.180;2022-08-03T09:54:39;37.70;31.90
70456;DHT22;57916;51.996;5.180;2022-08-03T09:57:06;37.70;31.30
70456;DHT22;57916;51.996;5.180;2022-08-03T09:59:33;37.70;30.90
70456;DHT22;57916;51.996;5.180;2022-08-03T10:02:04;37.60;30.40
70456;DHT22;57916;51.996;5.180;2022-08-03T10:04:32;37.40;30.60
70456;DHT22;57916;51.996;5.180;2022-08-03T10:09:29;37.30;31.00
70456;DHT22;57916;51.996;5.180;2022-08-03T10:11:56;37.40;31.00
70456;DHT22;57916;51.996;5.180;2022-08-03T10:14:25;37.40;30.40
70456;DHT22;57916;51.996;5.180;2022-08-03T10:16:55;37.50;30.80
70456;DHT22;57916;51.996;5.180;2022-08-03T10:19:22;37.70;30.60
70456;DHT22;57916;51.996;5.180;2022-08-03T10:22:06;37.60;30.80
70456;DHT22;57916;51.996;5.180;2022-08-03T10:25:08;37.70;31.60
70456;DHT22;57916;51.996;5.180;2022-08-03T10:27:41;37.80;29.80
70456;DHT22;57916;51.996;5.180;2022-08-03T10:30:10;37.80;30.30
70456;DHT22;57916;51.996;5.180;2022-08-03T10:32:43;37.80;30.40
70456;DHT22;57916;51.996;5.180;2022-08-03T10:35:18;37.90;30.30
70456;DHT22;57916;51.996;5.180;2022-08-03T10:37:57;37.80;29.50
70456;DHT22;57916;51.996;5.180;2022-08-03T10:40:27;37.60;30.10
70456;DHT22;57916;51.996;5.180;2022-08-03T10:43:33;37.50;30.80
70456;DHT22;57916;51.996;5.180;2022-08-03T10:46:06;37.70;31.30
70456;DHT22;57916;51.996;5.180;2022-08-03T10:48:34;37.90;30.00
70456;DHT22;57916;51.996;5.180;2022-08-03T10:51:02;38.10;29.70
70456;DHT22;57916;51.996;5.180;2022-08-03T10:53:41;38.30;30.00
70456;DHT22;57916;51.996;5.180;2022-08-03T11:00:00;38.80;29.60
70456;DHT22;57916;51.996;5.180;2022-08-03T11:05:30;39.00;28.30
70456;DHT22;57916;51.996;5.180;2022-08-03T11:08:26;39.10;28.20
70456;DHT22;57916;51.996;5.180;2022-08-03T11:10:56;39.20;28.30
70456;DHT22;57916;51.996;5.180;2022-08-03T11:13:25;39.30;27.90
70456;DHT22;57916;51.996;5.180;2022-08-03T11:15:56;39.30;28.10
70456;DHT22;57916;51.996;5.180;2022-08-03T11:18:28;39.40;28.00
70456;DHT22;57916;51.996;5.180;2022-08-03T11:20:57;39.40;27.40
70456;DHT22;57916;51.996;5.180;2022-08-03T11:23:40;39.30;27.80
70456;DHT22;57916;51.996;5.180;2022-08-03T11:26:28;39.20;27.60
70456;DHT22;57916;51.996;5.180;2022-08-03T11:29:27;39.10;27.60
70456;DHT22;57916;51.996;5.180;2022-08-03T11:31:55;39.10;27.80
70456;DHT22;57916;51.996;5.180;2022-08-03T11:34:22;39.00;27.80
70456;DHT22;57916;51.996;5.180;2022-08-03T11:37:22;38.90;28.60
70456;DHT22;57916;51.996;5.180;2022-08-03T11:39:54;39.00;28.20
70456;DHT22;57916;51.996;5.180;2022-08-03T11:44:55;39.10;27.70
70456;DHT22;57916;51.996;5.180;2022-08-03T11:47:25;39.10;28.00
70456;DHT22;57916;51.996;5.180;2022-08-03T11:49:56;39.00;27.90
70456;DHT22;57916;51.996;5.180;2022-08-03T11:52:26;38.90;27.70
70456;DHT22;57916;51.996;5.180;2022-08-03T11:54:59;39.00;28.00
70456;DHT22;57916;51.996;5.180;2022-08-03T11:57:33;39.10;27.60
70456;DHT22;57916;51.996;5.180;2022-08-03T12:00:29;39.10;27.70
70456;DHT22;57916;51.996;5.180;2022-08-03T12:05:44;39.40;27.20
70456;DHT22;57916;51.996;5.180;2022-08-03T12:10:57;39.50;27.20
70456;DHT22;57916;51.996;5.180;2022-08-03T12:13:26;39.40;27.70
70456;DHT22;57916;51.996;5.180;2022-08-03T12:16:21;39.40;27.10
70456;DHT22;57916;51.996;5.180;2022-08-03T12:19:15;39.40;27.20
70456;DHT22;57916;51.996;5.180;2022-08-03T12:21:46;39.40;27.30
70456;DHT22;57916;51.996;5.180;2022-08-03T12:24:22;39.40;27.40
70456;DHT22;57916;51.996;5.180;2022-08-03T12:26:50;39.40;26.90
70456;DHT22;57916;51.996;5.180;2022-08-03T12:29:24;39.30;26.90
70456;DHT22;57916;51.996;5.180;2022-08-03T12:31:52;39.30;27.50
70456;DHT22;57916;51.996;5.180;2022-08-03T12:34:18;39.30;28.40
70456;DHT22;57916;51.996;5.180;2022-08-03T12:37:04;39.20;27.80
70456;DHT22;57916;51.996;5.180;2022-08-03T12:39:50;39.10;27.50
70456;DHT22;57916;51.996;5.180;2022-08-03T12:44:57;38.90;27.70
70456;DHT22;57916;51.996;5.180;2022-08-03T12:47:24;38.80;28.00
70456;DHT22;57916;51.996;5.180;2022-08-03T12:49:52;38.60;28.10
70456;DHT22;57916;51.996;5.180;2022-08-03T12:52:21;38.40;28.50
70456;DHT22;57916;51.996;5.180;2022-08-03T12:54:59;38.40;28.90
70456;DHT22;57916;51.996;5.180;2022-08-03T12:57:39;38.10;28.80
70456;DHT22;57916;51.996;5.180;2022-08-03T13:00:15;37.90;29.20
70456;DHT22;57916;51.996;5.180;2022-08-03T13:03:03;37.60;29.60
70456;DHT22;57916;51.996;5.180;2022-08-03T13:05:50;37.30;30.30
70456;DHT22;57916;51.996;5.180;2022-08-03T13:08:23;37.10;30.60
70456;DHT22;57916;51.996;5.180;2022-08-03T13:10:50;36.80;30.80
70456;DHT22;57916;51.996;5.180;2022-08-03T13:13:17;36.70;31.00
70456;DHT22;57916;51.996;5.180;2022-08-03T13:15:46;36.50;31.50
70456;DHT22;57916;51.996;5.180;2022-08-03T13:18:14;36.20;31.40
70456;DHT22;57916;51.996;5.180;2022-08-03T13:20:43;36.00;31.70
70456;DHT22;57916;51.996;5.180;2022-08-03T13:23:10;35.80;32.80
70456;DHT22;57916;51.996;5.180;2022-08-03T13:25:48;35.70;33.00
70456;DHT22;57916;51.996;5.180;2022-08-03T13:28:22;35.60;33.80
70456;DHT22;57916;51.996;5.180;2022-08-03T13:30:49;35.60;33.00
70456;DHT22;57916;51.996;5.180;2022-08-03T13:33:16;35.60;33.10
70456;DHT22;57916;51.996;5.180;2022-08-03T13:35:43;35.50;32.90
70456;DHT22;57916;51.996;5.180;2022-08-03T13:38:10;35.40;33.00
70456;DHT22;57916;51.996;5.180;2022-08-03T13:40:37;35.30;33.70
70456;DHT22;57916;51.996;5.180;2022-08-03T13:43:07;35.20;33.40
70456;DHT22;57916;51.996;5.180;2022-08-03T13:45:34;35.10;33.80
70456;DHT22;57916;51.996;5.180;2022-08-03T13:48:01;35.00;34.10
70456;DHT22;57916;51.996;5.180;2022-08-03T13:50:28;35.00;34.50
70456;DHT22;57916;51.996;5.180;2022-08-03T13:52:57;35.00;34.20
70456;DHT22;57916;51.996;5.180;2022-08-03T13:55:24;34.90;34.60
70456;DHT22;57916;51.996;5.180;2022-08-03T13:57:50;34.90;35.00
70456;DHT22;57916;51.996;5.180;2022-08-03T14:00:37;34.90;35.60
70456;DHT22;57916;51.996;5.180;2022-08-03T14:03:05;34.90;34.80
70456;DHT22;57916;51.996;5.180;2022-08-03T14:05:40;34.90;34.80
70456;DHT22;57916;51.996;5.180;2022-08-03T14:08:08;34.90;34.70
70456;DHT22;57916;51.996;5.180;2022-08-03T14:10:37;34.80;34.30
70456;DHT22;57916;51.996;5.180;2022-08-03T14:13:05;34.80;34.20
70456;DHT22;57916;51.996;5.180;2022-08-03T14:15:32;34.80;34.70
70456;DHT22;57916;51.996;5.180;2022-08-03T14:18:06;34.80;34.40
70456;DHT22;57916;51.996;5.180;2022-08-03T14:20:42;34.80;34.50
70456;DHT22;57916;51.996;5.180;2022-08-03T14:23:16;34.80;33.70
70456;DHT22;57916;51.996;5.180;2022-08-03T14:25:43;34.70;33.70
70456;DHT22;57916;51.996;5.180;2022-08-03T14:28:22;34.70;34.50
70456;DHT22;57916;51.996;5.180;2022-08-03T14:30:54;34.60;34.20
70456;DHT22;57916;51.996;5.180;2022-08-03T14:33:24;34.50;34.10
70456;DHT22;57916;51.996;5.180;2022-08-03T14:35:51;34.50;34.30
70456;DHT22;57916;51.996;5.180;2022-08-03T14:38:19;34.40;34.40
70456;DHT22;57916;51.996;5.180;2022-08-03T14:40:47;34.40;34.40
70456;DHT22;57916;51.996;5.180;2022-08-03T14:43:15;34.30;34.60
70456;DHT22;57916;51.996;5.180;2022-08-03T14:45:51;34.30;34.70
70456;DHT22;57916;51.996;5.180;2022-08-03T14:48:20;34.30;35.40
70456;DHT22;57916;51.996;5.180;2022-08-03T14:51:07;34.40;34.80
70456;DHT22;57916;51.996;5.180;2022-08-03T14:53:34;34.40;34.70
70456;DHT22;57916;51.996;5.180;2022-08-03T14:56:01;34.40;34.30
70456;DHT22;57916;51.996;5.180;2022-08-03T14:58:35;34.40;34.40
70456;DHT22;57916;51.996;5.180;2022-08-03T15:01:02;34.40;34.70
70456;DHT22;57916;51.996;5.180;2022-08-03T15:03:49;34.40;34.50
70456;DHT22;57916;51.996;5.180;2022-08-03T15:06:16;34.40;34.80
70456;DHT22;57916;51.996;5.180;2022-08-03T15:08:43;34.40;35.10
70456;DHT22;57916;51.996;5.180;2022-08-03T15:11:31;34.40;35.40
70456;DHT22;57916;51.996;5.180;2022-08-03T15:13:58;34.30;34.70
70456;DHT22;57916;51.996;5.180;2022-08-03T15:16:25;34.30;35.10
70456;DHT22;57916;51.996;5.180;2022-08-03T15:18:55;34.30;34.80
70456;DHT22;57916;51.996;5.180;2022-08-03T15:21:23;34.30;35.20
70456;DHT22;57916;51.996;5.180;2022-08-03T15:24:10;34.30;35.40
70456;DHT22;57916;51.996;5.180;2022-08-03T15:26:37;34.40;35.20
70456;DHT22;57916;51.996;5.180;2022-08-03T15:29:07;34.40;35.80
70456;DHT22;57916;51.996;5.180;2022-08-03T15:31:54;34.40;35.10
70456;DHT22;57916;51.996;5.180;2022-08-03T15:34:21;34.40;35.10
70456;DHT22;57916;51.996;5.180;2022-08-03T15:36:48;34.40;35.70
70456;DHT22;57916;51.996;5.180;2022-08-03T15:39:15;34.40;35.90
70456;DHT22;57916;51.996;5.180;2022-08-03T15:41:42;34.50;35.10
70456;DHT22;57916;51.996;5.180;2022-08-03T15:44:09;34.40;34.80
70456;DHT22;57916;51.996;5.180;2022-08-03T15:46:36;34.40;34.70
70456;DHT22;57916;51.996;5.180;2022-08-03T15:49:02;34.30;35.20
70456;DHT22;57916;51.996;5.180;2022-08-03T15:51:29;34.30;35.50
70456;DHT22;57916;51.996;5.180;2022-08-03T15:53:56;34.30;36.30
70456;DHT22;57916;51.996;5.180;2022-08-03T15:56:23;34.30;36.20
70456;DHT22;57916;51.996;5.180;2022-08-03T15:58:52;34.30;35.60
70456;DHT22;57916;51.996;5.180;2022-08-03T16:01:39;34.30;35.60
70456;DHT22;57916;51.996;5.180;2022-08-03T16:04:06;34.20;35.40
70456;DHT22;57916;51.996;5.180;2022-08-03T16:06:33;34.20;36.10
70456;DHT22;57916;51.996;5.180;2022-08-03T16:09:06;34.20;35.60
70456;DHT22;57916;51.996;5.180;2022-08-03T16:11:53;34.20;36.00
70456;DHT22;57916;51.996;5.180;2022-08-03T16:14:20;34.20;35.70
70456;DHT22;57916;51.996;5.180;2022-08-03T16:17:03;34.20;35.80
70456;DHT22;57916;51.996;5.180;2022-08-03T16:19:30;34.20;35.90
70456;DHT22;57916;51.996;5.180;2022-08-03T16:21:58;34.20;36.20
70456;DHT22;57916;51.996;5.180;2022-08-03T16:24:26;34.20;36.80
70456;DHT22;57916;51.996;5.180;2022-08-03T16:26:54;34.20;36.20
70456;DHT22;57916;51.996;5.180;2022-08-03T16:29:21;34.30;36.20
70456;DHT22;57916;51.996;5.180;2022-08-03T16:31:50;34.30;35.90